Time;durP1;ratioP1;P1;durP2;ratioP2;P2;SDS_P1;SDS_P2;PMS_P1;PMS_P2;Temp;Humidity;BMP_temperature;BMP_pressure;BME280_temperature;BME280_humidity;BME280_pressure;Samples;Min_cycle;Max_cycle;Signal;HPM_P1;HPM_P2
2021/08/27 00:01:08;;;;;;;2.30;1.40;;;;;;;12.67;86.85;99023.72;5118187;28;20052;-51
2021/08/27 00:03:34;;;;;;;2.78;1.77;;;;;;;12.71;86.92;99028.78;5118395;28;20107;-51
2021/08/27 00:06:00;;;;;;;2.30;1.48;;;;;;;12.76;86.77;99018.91;5117096;28;20059;-51
2021/08/27 00:08:26;;;;;;;2.75;1.63;;;;;;;12.79;86.86;99029.28;5118060;28;20052;-51
2021/08/27 00:10:51;;;;;;;1.38;1.20;;;;;;;12.84;86.40;99031.72;5117697;28;20055;-51
2021/08/27 00:13:17;;;;;;;3.90;1.80;;;;;;;12.88;86.59;99028.00;5117090;28;20084;-51
2021/08/27 00:15:43;;;;;;;2.58;1.80;;;;;;;12.90;86.43;99035.81;5117825;28;20428;-51
2021/08/27 00:18:09;;;;;;;5.45;1.90;;;;;;;12.94;86.46;99024.25;5117001;28;20055;-51
2021/08/27 00:20:36;;;;;;;6.50;3.15;;;;;;;12.98;86.77;99039.78;5117646;28;20444;-51
2021/08/27 00:23:02;;;;;;;4.00;2.45;;;;;;;13.01;86.35;99039.66;5117417;28;20131;-51
2021/08/27 00:25:28;;;;;;;6.18;2.72;;;;;;;13.06;86.32;99042.94;5117521;27;20372;-51
2021/08/27 00:27:54;;;;;;;3.90;2.83;;;;;;;13.09;86.43;99050.63;5117260;28;20051;-51
2021/08/27 00:30:20;;;;;;;4.13;2.78;;;;;;;13.12;86.33;99048.81;5116268;28;20055;-51
2021/08/27 00:32:46;;;;;;;4.55;3.10;;;;;;;13.14;86.36;99058.31;5117548;27;20051;-51
2021/08/27 00:35:11;;;;;;;3.22;2.63;;;;;;;13.09;86.35;99037.50;5117220;28;20044;-51
2021/08/27 00:37:37;;;;;;;4.05;2.90;;;;;;;13.22;86.11;99064.06;5118028;28;20048;-51
2021/08/27 00:40:04;;;;;;;4.53;3.05;;;;;;;13.24;86.71;99064.88;5117413;28;20116;-51
2021/08/27 00:42:29;;;;;;;3.88;2.50;;;;;;;13.26;86.63;99057.78;5117394;28;20055;-51
2021/08/27 00:44:55;;;;;;;3.90;2.38;;;;;;;13.31;86.65;99058.41;5117108;28;20058;-51
2021/08/27 00:47:21;;;;;;;5.40;2.88;;;;;;;13.36;86.69;99052.94;5117530;28;20062;-51
2021/08/27 00:49:47;;;;;;;4.63;2.88;;;;;;;13.38;86.53;99060.72;5117398;27;20036;-51
2021/08/27 00:52:13;;;;;;;4.78;3.00;;;;;;;13.38;86.83;99053.69;5117240;28;20066;-51
2021/08/27 00:54:42;;;;;;;5.25;2.92;;;;;;;13.42;86.65;99052.63;5116965;28;20108;-51
2021/08/27 00:57:08;;;;;;;4.07;2.50;;;;;;;13.45;86.90;99051.63;5116909;28;20348;-51
2021/08/27 00:59:37;;;;;;;4.20;2.47;;;;;;;13.48;87.05;99052.31;5117132;28;20044;-51
2021/08/27 01:02:04;;;;;;;2.97;2.13;;;;;;;13.48;87.17;99052.31;5116244;28;20056;-51
2021/08/27 01:04:30;;;;;;;3.67;2.40;;;;;;;13.52;86.93;99048.63;5116181;28;20388;-51
2021/08/27 01:07:03;;;;;;;6.50;3.38;;;;;;;13.56;86.59;99051.97;5116689;28;20057;-51
2021/08/27 01:09:35;;;;;;;8.38;3.80;;;;;;;13.55;86.91;99050.22;5099184;28;20366;-51
2021/08/27 01:12:22;;;;;;;8.23;4.00;;;;;;;13.55;86.78;99047.59;5115825;28;20048;-51
2021/08/27 01:14:53;;;;;;;7.07;3.50;;;;;;;13.61;86.78;99056.97;5095975;28;20070;-51
2021/08/27 01:17:27;;;;;;;6.38;2.83;;;;;;;13.57;86.60;99038.72;5099166;28;20051;-51
2021/08/27 01:20:14;;;;;;;7.63;3.83;;;;;;;13.67;86.27;99043.53;5115541;28;20464;-51
2021/08/27 01:23:08;;;;;;;7.80;3.25;;;;;;;13.68;86.39;99043.47;5116812;28;20052;-51
2021/08/27 01:25:35;;;;;;;7.60;3.38;;;;;;;13.69;86.32;99041.69;5115956;28;20067;-51
2021/08/27 01:28:01;;;;;;;8.75;3.15;;;;;;;13.70;86.16;99049.47;5115667;28;20044;-51
2021/08/27 01:30:34;;;;;;;4.85;2.83;;;;;;;13.75;85.99;99046.63;5116045;28;20108;-51
2021/08/27 01:33:03;;;;;;;4.97;2.72;;;;;;;13.75;85.85;99046.63;5116488;28;20446;-51
2021/08/27 01:35:29;;;;;;;5.57;3.00;;;;;;;13.76;85.97;99049.19;5115834;28;20131;-51
2021/08/27 01:37:55;;;;;;;11.63;3.80;;;;;;;13.78;85.75;99046.50;5115782;28;20043;-52
2021/08/27 01:40:21;;;;;;;9.45;6.05;;;;;;;13.76;85.81;99046.56;5116511;28;20051;-51
2021/08/27 01:42:47;;;;;;;8.15;4.85;;;;;;;13.75;85.74;99047.50;5119952;28;20051;-51
2021/08/27 01:45:14;;;;;;;5.53;3.50;;;;;;;13.77;85.76;99052.66;5120831;28;20474;-51
2021/08/27 01:47:40;;;;;;;6.38;3.13;;;;;;;13.76;85.92;99048.34;5120044;28;20105;-51
2021/08/27 01:50:06;;;;;;;9.00;2.72;;;;;;;13.75;86.09;99042.22;5102824;28;20078;-51
2021/08/27 01:52:32;;;;;;;7.60;4.63;;;;;;;13.76;86.07;99041.28;5119859;28;20040;-51
2021/08/27 01:54:58;;;;;;;6.00;4.10;;;;;;;13.73;86.00;99037.97;5102904;28;20051;-51
2021/08/27 01:57:24;;;;;;;7.38;3.40;;;;;;;13.80;86.12;99053.34;5119530;28;20202;-51
2021/08/27 01:59:50;;;;;;;7.97;4.13;;;;;;;13.80;86.29;99048.09;5121391;28;20051;-51
2021/08/27 02:02:16;;;;;;;6.32;3.50;;;;;;;13.81;86.28;99046.31;5120202;28;20449;-51
2021/08/27 02:04:44;;;;;;;3.95;2.65;;;;;;;13.64;86.21;99015.56;5119487;28;20051;-51
2021/08/27 02:07:10;;;;;;;2.63;2.28;;;;;;;13.83;86.58;99040.97;5102762;28;20043;-51
2021/08/27 02:09:36;;;;;;;4.75;2.70;;;;;;;13.85;86.50;99039.97;5120425;28;20114;-51
2021/08/27 02:12:03;;;;;;;4.05;2.28;;;;;;;13.86;86.54;99041.69;5119237;28;20101;-51
2021/08/27 02:14:28;;;;;;;5.22;3.03;;;;;;;13.87;86.54;99042.53;5119402;28;20147;-51
2021/08/27 02:16:54;;;;;;;5.95;3.83;;;;;;;13.86;86.61;99049.56;5119918;28;20441;-51
2021/08/27 02:19:20;;;;;;;8.38;4.25;;;;;;;13.89;86.53;99040.69;5120411;28;20051;-51
2021/08/27 02:21:49;;;;;;;5.43;2.97;;;;;;;13.89;85.99;99040.69;5120228;28;20059;-51
2021/08/27 02:24:20;;;;;;;9.52;3.78;;;;;;;13.90;85.78;99045.00;5119252;28;20051;-51
2021/08/27 02:26:46;;;;;;;3.67;2.92;;;;;;;13.84;86.04;99042.69;5103054;28;20130;-51
2021/08/27 02:29:14;;;;;;;3.85;3.00;;;;;;;13.76;86.10;99027.28;5120334;28;20040;-51
2021/08/27 02:31:43;;;;;;;9.23;2.85;;;;;;;13.85;86.19;99036.50;5118883;28;20453;-51
2021/08/27 02:34:08;;;;;;;3.35;2.25;;;;;;;13.82;85.82;99036.66;5101958;28;20040;-51
2021/08/27 02:36:34;;;;;;;3.50;2.78;;;;;;;13.82;85.83;99036.66;5119553;28;20040;-51
2021/08/27 02:39:01;;;;;;;5.18;3.33;;;;;;;13.85;85.79;99034.72;5118833;28;20051;-51
2021/08/27 02:41:26;;;;;;;4.90;2.88;;;;;;;13.80;85.88;99031.44;5119741;28;20070;-51
2021/08/27 02:43:52;;;;;;;5.53;2.10;;;;;;;13.81;86.02;99030.50;5118768;28;20047;-51
2021/08/27 02:46:18;;;;;;;3.55;2.30;;;;;;;13.77;86.49;99029.81;5119633;28;20039;-51
2021/08/27 02:48:43;;;;;;;4.25;2.80;;;;;;;13.79;86.17;99027.13;5119342;28;20097;-51
2021/08/27 02:51:19;;;;;;;4.00;3.35;;;;;;;13.83;85.93;99030.47;5119596;28;20051;-51
2021/08/27 02:53:50;;;;;;;4.80;2.47;;;;;;;13.79;85.59;99025.34;5117541;28;20043;-51
2021/08/27 02:56:24;;;;;;;2.90;2.28;;;;;;;13.84;86.13;99029.50;5119460;28;20040;-51
2021/08/27 02:58:51;;;;;;;8.48;2.40;;;;;;;13.81;86.29;99025.25;5119148;28;20077;-51
2021/08/27 03:01:25;;;;;;;5.15;2.42;;;;;;;13.85;85.74;99011.03;5101499;28;20126;-50
2021/08/27 03:04:15;;;;;;;18.00;9.98;;;;;;;13.86;85.61;99020.63;5102118;28;20051;-51
2021/08/27 03:06:45;;;;;;;19.05;11.15;;;;;;;13.86;85.92;99015.34;5119231;28;20048;-51
2021/08/27 03:09:11;;;;;;;15.55;9.52;;;;;;;13.85;86.03;99016.28;5101666;28;20043;-51
2021/08/27 03:11:43;;;;;;;10.98;6.15;;;;;;;13.89;85.80;99025.72;5118074;28;20080;-51
2021/08/27 03:14:39;;;;;;;12.68;5.60;;;;;;;13.86;85.97;99031.16;5101561;28;20048;-51
2021/08/27 03:17:07;;;;;;;9.35;4.32;;;;;;;13.84;85.86;99033.00;5101061;28;20066;-51
2021/08/27 03:20:08;;;;;;;6.50;3.63;;;;;;;13.85;85.53;99031.25;5118829;28;20051;-51
2021/08/27 03:22:41;;;;;;;6.97;3.97;;;;;;;13.82;86.03;99039.28;5117128;28;20397;-51
2021/08/27 03:25:08;;;;;;;7.38;4.30;;;;;;;13.78;85.45;99036.81;5118219;28;20040;-51
2021/08/27 03:27:35;;;;;;;4.38;2.85;;;;;;;13.77;85.16;99034.25;5118478;27;20483;-51
2021/08/27 03:30:07;;;;;;;4.32;2.85;;;;;;;13.74;84.87;99037.88;5117987;28;20185;-51
2021/08/27 03:32:33;;;;;;;6.97;2.78;;;;;;;13.66;84.60;99037.41;5118231;28;20121;-51
2021/08/27 03:34:58;;;;;;;4.28;2.78;;;;;;;13.63;84.22;99037.56;5100784;28;20069;-51
2021/08/27 03:37:24;;;;;;;5.18;2.97;;;;;;;13.63;84.22;99045.47;5117512;28;20055;-51
2021/08/27 03:39:50;;;;;;;3.80;2.88;;;;;;;13.60;84.20;99040.34;5117694;28;20044;-51
2021/08/27 03:42:16;;;;;;;7.00;3.67;;;;;;;13.55;83.64;99047.59;5117393;28;20048;-51
2021/08/27 03:44:42;;;;;;;7.80;3.95;;;;;;;13.50;83.71;99047.84;5118308;28;20042;-51
2021/08/27 03:47:08;;;;;;;21.40;8.23;;;;;;;13.47;83.61;99053.25;5117260;28;20054;-51
2021/08/27 03:49:34;;;;;;;14.73;7.55;;;;;;;13.45;83.48;99051.63;5117421;28;20051;-51
2021/08/27 03:52:00;;;;;;;13.73;6.28;;;;;;;13.36;83.66;99042.41;5117574;28;20078;-51
2021/08/27 03:54:26;;;;;;;11.68;5.50;;;;;;;13.38;83.68;99050.22;5117515;28;20054;-51
2021/08/27 03:56:52;;;;;;;13.30;5.60;;;;;;;13.36;83.89;99062.56;5100199;28;20040;-51
2021/08/27 03:59:18;;;;;;;14.63;6.85;;;;;;;13.36;84.06;99063.44;5117393;28;20043;-51
2021/08/27 04:01:44;;;;;;;16.50;7.40;;;;;;;13.37;84.30;99066.94;5118124;28;20343;-51
2021/08/27 04:04:16;;;;;;;11.48;5.22;;;;;;;13.42;84.21;99072.81;5117892;28;20065;-51
2021/08/27 04:06:42;;;;;;;8.23;4.95;;;;;;;13.38;84.29;99066.84;5117967;28;20410;-51
2021/08/27 04:09:08;;;;;;;9.63;6.07;;;;;;;13.40;84.45;99072.88;5117815;28;20046;-52
2021/08/27 04:11:34;;;;;;;13.07;6.95;;;;;;;13.40;84.63;99067.63;5118017;28;20043;-51
2021/08/27 04:13:59;;;;;;;21.33;9.15;;;;;;;13.40;84.74;99070.25;5117651;28;20051;-51
2021/08/27 04:16:25;;;;;;;17.17;8.10;;;;;;;13.43;84.75;99075.38;5118711;28;20052;-51
2021/08/27 04:18:51;;;;;;;29.27;16.98;;;;;;;13.42;84.99;99078.94;5118043;28;20036;-51
2021/08/27 04:21:16;;;;;;;16.02;10.68;;;;;;;13.44;85.13;99087.59;5117821;28;20058;-51
2021/08/27 04:23:42;;;;;;;12.23;7.63;;;;;;;13.46;85.56;99087.53;5117486;28;20055;-52
2021/08/27 04:26:08;;;;;;;8.18;5.07;;;;;;;13.47;85.79;99090.06;5117389;28;20039;-51
2021/08/27 04:28:34;;;;;;;5.93;4.53;;;;;;;13.48;85.92;99097.03;5117472;28;20039;-51
2021/08/27 04:31:00;;;;;;;6.07;5.47;;;;;;;13.48;86.15;99091.78;5117402;28;20048;-51
2021/08/27 04:33:26;;;;;;;8.30;5.53;;;;;;;13.49;86.70;99098.75;5117563;28;20101;-51
2021/08/27 04:35:51;;;;;;;7.30;5.03;;;;;;;13.50;86.95;99103.09;5117317;28;20161;-51
2021/08/27 04:38:18;;;;;;;4.57;4.00;;;;;;;13.52;87.01;99095.97;5117496;28;20066;-51
2021/08/27 04:40:43;;;;;;;5.00;3.55;;;;;;;13.56;86.96;99108.06;5117467;28;20047;-51
2021/08/27 04:43:09;;;;;;;4.05;3.53;;;;;;;13.59;86.94;99111.47;5117973;28;20379;-51
2021/08/27 04:45:35;;;;;;;4.57;2.95;;;;;;;13.65;86.76;99119.03;5117070;28;20047;-51
2021/08/27 04:48:00;;;;;;;3.50;2.58;;;;;;;13.68;86.84;99124.16;5118073;28;20043;-51
2021/08/27 04:50:26;;;;;;;6.55;3.25;;;;;;;13.68;86.87;99111.88;5117043;28;20054;-51
2021/08/27 04:52:54;;;;;;;3.85;2.60;;;;;;;13.72;86.89;99117.84;5116388;28;20074;-52
2021/08/27 04:55:19;;;;;;;3.47;2.63;;;;;;;13.76;86.81;99120.25;5116979;28;20040;-51
2021/08/27 04:57:45;;;;;;;5.90;4.10;;;;;;;13.79;86.64;99128.00;5116865;28;20059;-51
2021/08/27 05:00:11;;;;;;;8.23;3.95;;;;;;;13.80;86.76;99124.41;5117082;27;20051;-51
2021/08/27 05:02:37;;;;;;;3.50;3.05;;;;;;;13.85;86.77;99123.38;5117083;28;20044;-51
2021/08/27 05:05:03;;;;;;;7.90;4.57;;;;;;;13.85;86.75;99118.09;5117078;28;20445;-51
2021/08/27 05:07:29;;;;;;;9.68;3.88;;;;;;;13.89;86.51;99125.75;5117215;28;20414;-51
2021/08/27 05:09:55;;;;;;;6.88;3.92;;;;;;;13.90;86.48;99121.34;5116757;28;20039;-51
2021/08/27 05:12:20;;;;;;;4.95;4.13;;;;;;;13.92;86.26;99124.75;5116970;28;20039;-51
2021/08/27 05:14:47;;;;;;;4.93;3.65;;;;;;;13.97;86.53;99120.09;5116521;28;20043;-51
2021/08/27 05:17:12;;;;;;;4.80;3.67;;;;;;;14.00;86.29;99125.22;5116202;28;20384;-51
2021/08/27 05:19:38;;;;;;;6.88;3.33;;;;;;;14.03;86.08;99123.28;5115656;28;20058;-51
2021/08/27 05:22:04;;;;;;;3.97;3.58;;;;;;;13.96;86.18;99103.47;5114731;28;20047;-51
2021/08/27 05:24:29;;;;;;;4.22;3.10;;;;;;;14.04;86.39;99118.88;5114579;28;20061;-51
2021/08/27 05:26:55;;;;;;;3.88;3.05;;;;;;;14.10;86.22;99123.81;5114732;28;20048;-51
2021/08/27 05:29:21;;;;;;;3.20;2.63;;;;;;;14.12;86.24;99118.50;5114747;28;20430;-51
2021/08/27 05:31:47;;;;;;;3.70;3.22;;;;;;;14.15;86.08;99124.47;5114834;28;20036;-51
2021/08/27 05:34:13;;;;;;;3.80;3.17;;;;;;;14.18;85.90;99134.84;5114856;28;20414;-51
2021/08/27 05:36:39;;;;;;;4.50;3.15;;;;;;;14.20;85.94;99124.22;5108578;28;20050;-51
2021/08/27 05:39:04;;;;;;;9.68;3.35;;;;;;;14.20;85.62;99130.34;5115362;28;20040;-51
2021/08/27 05:41:33;;;;;;;3.47;2.92;;;;;;;14.19;85.88;99125.16;5113489;28;20117;-51
2021/08/27 05:43:59;;;;;;;10.48;4.70;;;;;;;14.23;85.76;99129.31;5114415;28;20039;-51
2021/08/27 05:46:25;;;;;;;6.72;4.63;;;;;;;14.26;85.61;99118.63;5114541;28;20051;-51
2021/08/27 05:48:50;;;;;;;4.75;3.75;;;;;;;14.31;85.25;99123.69;5114246;28;20047;-51
2021/08/27 05:51:17;;;;;;;5.88;3.90;;;;;;;14.36;85.55;99122.50;5114478;28;20055;-51
2021/08/27 05:53:42;;;;;;;3.85;3.45;;;;;;;14.42;85.55;99119.56;5114640;28;20048;-51
2021/08/27 05:56:08;;;;;;;6.10;3.65;;;;;;;14.50;85.38;99121.81;5115914;28;20047;-51
2021/08/27 05:58:34;;;;;;;6.03;3.15;;;;;;;14.57;85.49;99119.75;5115661;28;20051;-51
2021/08/27 06:01:00;;;;;;;4.55;2.97;;;;;;;14.64;85.10;99131.66;5114333;28;20055;-51
2021/08/27 06:03:25;;;;;;;5.45;2.78;;;;;;;14.70;85.33;99140.09;5115688;28;20047;-51
2021/08/27 06:05:51;;;;;;;6.18;3.10;;;;;;;14.78;85.21;99138.81;5115239;28;20071;-51
2021/08/27 06:08:17;;;;;;;3.92;2.70;;;;;;;14.84;84.80;99127.97;5116325;28;20040;-51
2021/08/27 06:10:43;;;;;;;4.75;3.97;;;;;;;14.90;84.57;99143.47;5116634;28;20168;-51
2021/08/27 06:13:08;;;;;;;4.53;4.00;;;;;;;14.92;84.42;99138.97;5116108;28;20036;-51
2021/08/27 06:15:34;;;;;;;14.27;6.85;;;;;;;14.94;84.26;99134.44;5116321;28;20047;-51
2021/08/27 06:18:00;;;;;;;11.73;8.27;;;;;;;14.96;84.47;99137.84;5116059;28;20047;-51
2021/08/27 06:20:26;;;;;;;7.80;5.97;;;;;;;15.02;84.39;99121.72;5115916;28;20062;-51
2021/08/27 06:22:51;;;;;;;7.03;5.55;;;;;;;15.12;83.82;99137.91;5116247;28;20319;-51
2021/08/27 06:25:18;;;;;;;6.07;4.25;;;;;;;15.17;83.55;99141.13;5115933;28;20052;-51
2021/08/27 06:27:44;;;;;;;5.60;3.90;;;;;;;15.23;83.32;99143.41;5118316;28;20092;-51
2021/08/27 06:30:10;;;;;;;7.10;4.57;;;;;;;15.32;83.33;99145.56;5120078;28;20040;-51
2021/08/27 06:32:35;;;;;;;5.65;5.13;;;;;;;15.35;82.57;99140.13;5119956;28;20108;-51
2021/08/27 06:35:01;;;;;;;4.93;4.53;;;;;;;15.41;82.17;99152.97;5119924;28;20100;-51
2021/08/27 06:40:13;;;;;;;5.00;4.50;;;;;;;15.48;81.93;99157.91;5118827;28;20070;-50
2021/08/27 06:42:39;;;;;;;9.05;4.47;;;;;;;15.50;81.91;99167.47;5119522;28;20040;-51
2021/08/27 06:45:06;;;;;;;5.05;4.50;;;;;;;15.58;81.73;99156.47;5118057;28;20074;-51
2021/08/27 06:47:32;;;;;;;6.43;3.85;;;;;;;15.61;81.39;99162.41;5117844;28;20043;-51
2021/08/27 06:49:58;;;;;;;4.03;3.10;;;;;;;15.67;81.39;99163.91;5118389;28;20057;-52
2021/08/27 06:52:23;;;;;;;3.47;2.97;;;;;;;15.72;81.28;99175.03;5118599;28;20047;-51
2021/08/27 06:54:49;;;;;;;3.45;3.15;;;;;;;15.69;80.58;99167.28;5118504;28;20043;-52
2021/08/27 06:57:15;;;;;;;5.10;3.20;;;;;;;15.74;80.10;99165.25;5118123;28;20330;-52
2021/08/27 06:59:40;;;;;;;3.88;2.33;;;;;;;15.82;80.44;99170.94;5118853;28;20058;-52
2021/08/27 07:02:06;;;;;;;3.20;2.80;;;;;;;15.88;80.68;99173.25;5120249;28;20441;-51
2021/08/27 07:04:34;;;;;;;2.95;2.75;;;;;;;15.94;80.71;99176.47;5119404;28;20430;-51
2021/08/27 07:07:00;;;;;;;2.85;2.47;;;;;;;15.92;79.42;99175.72;5119216;28;20434;-51
2021/08/27 07:09:26;;;;;;;4.22;2.83;;;;;;;15.95;79.65;99178.16;5119273;28;20044;-51
2021/08/27 07:11:51;;;;;;;3.03;2.83;;;;;;;15.98;79.39;99183.28;5118126;28;20430;-51
2021/08/27 07:14:17;;;;;;;3.60;3.30;;;;;;;15.93;79.23;99180.06;5118571;28;20066;-52
2021/08/27 07:16:43;;;;;;;2.72;2.53;;;;;;;15.98;78.86;99178.84;5117944;28;20040;-51
2021/08/27 07:19:09;;;;;;;3.17;2.97;;;;;;;15.98;79.18;99192.06;5118063;28;20056;-51
2021/08/27 07:21:34;;;;;;;3.72;2.90;;;;;;;16.01;79.29;99186.59;5118730;28;20071;-52
2021/08/27 07:24:00;;;;;;;3.47;2.80;;;;;;;16.04;79.24;99182.94;5118972;28;20051;-51
2021/08/27 07:26:26;;;;;;;6.38;3.25;;;;;;;16.11;79.19;99185.13;5118321;28;20422;-51
2021/08/27 07:28:52;;;;;;;3.33;3.03;;;;;;;16.12;78.76;99189.50;5101107;28;20061;-51
2021/08/27 07:31:18;;;;;;;3.95;3.17;;;;;;;16.13;78.31;99193.81;5118873;28;20078;-51
2021/08/27 07:33:44;;;;;;;5.05;3.22;;;;;;;16.20;78.16;99194.31;5118522;28;20051;-51
2021/08/27 07:36:10;;;;;;;3.45;3.15;;;;;;;16.22;78.01;99196.88;5118766;28;20047;-51
2021/08/27 07:38:37;;;;;;;3.25;3.05;;;;;;;16.22;77.68;99204.81;5118100;28;20058;-51
2021/08/27 07:41:02;;;;;;;4.07;3.67;;;;;;;16.24;77.72;99201.13;5118692;28;20088;-51
2021/08/27 07:43:28;;;;;;;3.50;3.13;;;;;;;16.22;77.67;99200.38;5118630;28;20047;-52
2021/08/27 07:45:57;;;;;;;3.92;3.25;;;;;;;16.26;77.98;99193.13;5118578;28;20055;-52
2021/08/27 07:48:26;;;;;;;7.03;3.45;;;;;;;16.37;77.69;99195.97;5118165;28;20047;-51
2021/08/27 07:50:52;;;;;;;3.05;2.85;;;;;;;16.43;78.01;99190.34;5100708;28;20043;-51
2021/08/27 07:53:18;;;;;;;2.30;2.10;;;;;;;16.42;76.77;99198.38;5117804;28;20349;-51
2021/08/27 07:55:44;;;;;;;3.10;2.50;;;;;;;16.42;76.52;99198.38;5116807;28;20047;-51
2021/08/27 07:58:09;;;;;;;3.05;2.50;;;;;;;16.50;77.01;99193.47;5116626;28;20047;-51
2021/08/27 08:00:35;;;;;;;4.45;3.00;;;;;;;16.55;75.96;99191.41;5117990;28;20051;-51
2021/08/27 08:03:01;;;;;;;4.07;2.70;;;;;;;16.66;76.78;99188.97;5116545;28;20078;-51
2021/08/27 08:05:27;;;;;;;3.13;2.72;;;;;;;16.77;76.60;99197.16;5116014;28;20078;-51
2021/08/27 08:07:53;;;;;;;4.82;3.00;;;;;;;16.84;75.69;99196.78;5116088;28;20043;-51
2021/08/27 08:10:18;;;;;;;2.92;2.63;;;;;;;17.00;76.39;99195.75;5115887;28;20609;-51
2021/08/27 08:12:44;;;;;;;5.15;3.47;;;;;;;17.04;74.50;99191.97;5115810;28;20066;-51
2021/08/27 08:15:10;;;;;;;3.83;2.92;;;;;;;17.09;74.84;99194.31;5116049;28;20077;-51
2021/08/27 08:17:36;;;;;;;5.55;3.10;;;;;;;17.23;74.78;99202.28;5116117;28;20047;-51
2021/08/27 08:20:02;;;;;;;4.03;3.30;;;;;;;17.34;74.58;99203.41;5117561;28;20060;-51
2021/08/27 08:22:27;;;;;;;3.63;3.33;;;;;;;17.48;74.77;99201.63;5099827;28;20062;-51
2021/08/27 08:24:53;;;;;;;5.43;3.53;;;;;;;17.62;75.03;99198.09;5117820;28;20043;-51
2021/08/27 08:27:19;;;;;;;4.65;4.05;;;;;;;17.70;73.68;99205.53;5116790;28;20044;-51
2021/08/27 08:29:45;;;;;;;3.70;3.40;;;;;;;17.82;73.26;99196.84;5117477;28;20050;-51
2021/08/27 08:32:11;;;;;;;3.75;3.05;;;;;;;17.89;72.81;99198.13;5117980;28;20040;-51
2021/08/27 08:34:37;;;;;;;6.53;4.38;;;;;;;18.10;72.16;99200.31;5116725;28;20127;-51
2021/08/27 08:37:03;;;;;;;3.42;3.13;;;;;;;18.23;71.83;99209.16;5117253;28;20511;-51
2021/08/27 08:39:28;;;;;;;5.80;4.35;;;;;;;18.33;71.52;99193.50;5117567;28;20127;-52
2021/08/27 08:41:54;;;;;;;4.45;3.83;;;;;;;18.56;70.38;99186.69;5099476;28;20050;-51
2021/08/27 08:44:20;;;;;;;4.00;3.70;;;;;;;18.64;70.13;99194.94;5117655;28;20055;-51
2021/08/27 08:46:47;;;;;;;4.93;3.90;;;;;;;18.66;69.53;99185.94;5117304;28;20048;-52
2021/08/27 08:49:13;;;;;;;7.10;3.95;;;;;;;18.89;69.73;99188.84;5116240;28;20036;-52
2021/08/27 08:51:46;;;;;;;3.05;2.75;;;;;;;19.10;67.93;99190.00;5115240;28;20380;-52
2021/08/27 08:54:14;;;;;;;3.70;3.40;;;;;;;19.11;68.30;99197.03;5099869;28;20131;-52
2021/08/27 08:56:43;;;;;;;4.93;3.65;;;;;;;19.20;67.23;99192.00;5116980;28;20067;-52
2021/08/27 08:59:10;;;;;;;2.60;2.40;;;;;;;19.22;67.36;99192.78;5117188;28;20353;-52
2021/08/27 09:01:35;;;;;;;3.30;2.67;;;;;;;19.33;67.22;99195.50;5116840;28;20508;-51
2021/08/27 09:04:02;;;;;;;2.55;2.33;;;;;;;19.42;66.05;99181.56;5116852;28;20061;-52
2021/08/27 09:06:29;;;;;;;3.08;2.30;;;;;;;19.47;65.65;99191.88;5099056;28;20096;-52
2021/08/27 09:08:59;;;;;;;2.45;2.25;;;;;;;19.61;65.41;99189.94;5116176;28;20067;-51
2021/08/27 09:11:26;;;;;;;5.13;2.72;;;;;;;19.77;65.45;99199.47;5117075;28;20061;-51
2021/08/27 09:13:54;;;;;;;3.38;3.08;;;;;;;19.86;62.94;99196.16;5116971;28;20051;-52
2021/08/27 09:16:22;;;;;;;4.95;3.47;;;;;;;19.97;64.24;99204.19;5116700;28;20036;-51
2021/08/27 09:18:49;;;;;;;6.72;3.20;;;;;;;20.02;63.31;99199.38;5116615;28;20050;-51
2021/08/27 09:21:46;;;;;;;4.05;2.58;;;;;;;20.14;62.88;99204.75;5116928;28;20445;-51
2021/08/27 09:24:13;;;;;;;82.35;24.02;;;;;;;20.19;63.12;99207.94;5116904;28;20066;-51
2021/08/27 09:26:39;;;;;;;120.00;43.17;;;;;;;20.30;63.73;99203.50;5116488;28;20046;-52
2021/08/27 09:29:05;;;;;;;24.05;10.30;;;;;;;20.30;62.46;99197.31;5116565;28;20105;-52
2021/08/27 09:31:35;;;;;;;5.28;3.90;;;;;;;20.38;61.92;99205.59;5116769;28;20035;-52
2021/08/27 09:34:01;;;;;;;3.83;3.10;;;;;;;20.36;62.16;99199.53;5099073;28;20046;-52
2021/08/27 09:36:30;;;;;;;3.38;2.53;;;;;;;20.32;62.17;99203.38;5116029;28;20047;-52
2021/08/27 09:39:16;;;;;;;7.18;3.38;;;;;;;20.20;59.99;99194.50;5115831;28;20043;-51
2021/08/27 09:41:56;;;;;;;2.40;2.20;;;;;;;20.23;58.00;99202.25;5116681;28;20052;-51
2021/08/27 09:44:22;;;;;;;2.65;2.05;;;;;;;20.20;60.68;99201.63;5116693;28;20052;-52
2021/08/27 09:46:48;;;;;;;2.28;1.73;;;;;;;20.28;61.45;99199.28;5116459;28;20407;-51
2021/08/27 09:49:30;;;;;;;1.80;1.70;;;;;;;20.37;59.40;99200.38;5117088;28;20052;-51
2021/08/27 09:51:57;;;;;;;3.38;2.63;;;;;;;20.37;61.53;99201.22;5116890;28;20100;-51
2021/08/27 09:54:36;;;;;;;2.60;2.40;;;;;;;20.62;61.11;99208.22;5116301;28;20114;-51
2021/08/27 09:57:07;;;;;;;2.95;2.47;;;;;;;20.88;62.48;99216.03;5115715;28;20044;-51
2021/08/27 09:59:46;;;;;;;2.40;2.20;;;;;;;21.18;60.26;99218.13;5116159;28;20453;-52
2021/08/27 10:02:25;;;;;;;2.75;1.17;;;;;;;21.51;57.07;99211.13;5117822;28;20139;-52
2021/08/27 10:04:55;;;;;;;1.20;1.10;;;;;;;21.70;57.82;99209.53;5120583;28;20050;-52
2021/08/27 10:07:28;;;;;;;1.17;1.08;;;;;;;21.82;56.96;99186.41;5120234;28;20445;-52
2021/08/27 10:09:54;;;;;;;1.70;0.70;;;;;;;21.78;53.44;99194.78;5119658;28;20433;-52
2021/08/27 10:12:20;;;;;;;0.60;0.60;;;;;;;21.73;54.30;99189.81;5119325;28;20081;-52
2021/08/27 10:14:46;;;;;;;1.25;0.70;;;;;;;21.80;53.80;99193.66;5119508;28;20052;-52
2021/08/27 10:17:13;;;;;;;2.75;0.90;;;;;;;21.83;54.00;99196.06;5120071;28;20404;-52
2021/08/27 10:19:39;;;;;;;1.85;0.80;;;;;;;21.82;54.82;99198.88;5119870;28;20509;-52
2021/08/27 10:22:05;;;;;;;2.17;0.70;;;;;;;21.71;53.59;99197.09;5120222;28;20139;-52
2021/08/27 10:24:31;;;;;;;1.27;0.80;;;;;;;21.53;54.85;99190.56;5119942;28;20469;-52
2021/08/27 10:26:57;;;;;;;1.77;0.95;;;;;;;21.38;54.27;99193.47;5119564;28;20051;-52
2021/08/27 10:29:23;;;;;;;1.50;0.75;;;;;;;21.33;54.53;99195.63;5118888;28;20361;-52
2021/08/27 10:31:50;;;;;;;1.15;0.40;;;;;;;21.31;55.66;99188.72;5118908;28;20521;-52
2021/08/27 10:34:16;;;;;;;0.80;0.50;;;;;;;21.29;55.50;99150.75;5119715;28;20051;-52
2021/08/27 10:36:46;;;;;;;1.60;0.80;;;;;;;21.70;55.38;99192.72;5119611;28;20100;-52
2021/08/27 10:39:31;;;;;;;1.90;1.13;;;;;;;21.85;53.79;99194.13;5119878;28;20047;-52
2021/08/27 10:41:57;;;;;;;1.08;0.50;;;;;;;21.80;54.12;99188.31;5120201;28;20050;-52
2021/08/27 10:44:24;;;;;;;1.98;1.30;;;;;;;21.83;54.68;99195.22;5101973;28;20048;-52
2021/08/27 10:46:51;;;;;;;1.63;0.85;;;;;;;21.82;55.64;99194.38;5116669;28;20183;-52
2021/08/27 10:49:18;;;;;;;1.02;0.75;;;;;;;21.62;54.99;99196.00;5119674;28;20399;-52
2021/08/27 10:51:44;;;;;;;4.28;0.80;;;;;;;21.54;54.61;99197.56;5119438;28;20035;-52
2021/08/27 10:54:12;;;;;;;0.85;0.75;;;;;;;21.40;55.33;99199.53;5119605;28;20052;-52
2021/08/27 10:56:53;;;;;;;1.33;0.70;;;;;;;21.30;54.30;99195.88;5119554;28;20043;-52
2021/08/27 10:59:23;;;;;;;4.03;1.35;;;;;;;21.13;53.95;99193.69;5119529;28;20043;-52
2021/08/27 11:01:58;;;;;;;0.68;0.43;;;;;;;20.88;53.16;99197.41;5119477;28;20085;-52
2021/08/27 11:04:25;;;;;;;0.68;0.20;;;;;;;20.66;53.10;99195.53;5119437;28;20437;-52
2021/08/27 11:06:52;;;;;;;0.70;0.38;;;;;;;20.48;53.70;99200.44;5119238;28;20048;-51
2021/08/27 11:09:26;;;;;;;0.60;0.28;;;;;;;20.33;53.92;99199.75;5119051;28;20319;-51
2021/08/27 11:12:22;;;;;;;0.45;0.30;;;;;;;20.25;54.32;99200.34;5119277;28;20044;-52
2021/08/27 11:15:23;;;;;;;1.48;0.90;;;;;;;20.22;55.12;99194.41;5118214;28;20047;-51
2021/08/27 11:18:15;;;;;;;0.40;0.22;;;;;;;20.13;55.71;99198.59;5119187;28;20043;-51
2021/08/27 11:20:42;;;;;;;0.90;0.20;;;;;;;20.06;56.18;99195.53;5112520;28;20097;-52
2021/08/27 11:23:08;;;;;;;0.60;0.25;;;;;;;20.01;56.40;99197.66;5119077;28;20282;-52
2021/08/27 11:25:38;;;;;;;1.40;0.60;;;;;;;19.97;56.08;99204.19;5119020;28;20055;-51
2021/08/27 11:28:17;;;;;;;4.70;1.60;;;;;;;19.90;56.76;99191.47;5118195;28;20052;-51
2021/08/27 11:31:03;;;;;;;1.95;0.63;;;;;;;19.82;56.11;99199.97;5118947;28;20120;-51
2021/08/27 11:33:40;;;;;;;0.68;0.30;;;;;;;19.76;55.79;99193.31;5118589;28;20364;-51
2021/08/27 11:36:07;;;;;;;1.35;0.30;;;;;;;19.71;56.64;99191.94;5118567;28;20067;-51
2021/08/27 11:38:32;;;;;;;1.13;0.47;;;;;;;19.59;57.88;99193.63;5117407;28;20067;-52